• Join FlightAware (Why Join?)
  • Login
  • US Flag 
08:21PM EDT


 

Airport Tracker/Info


-or-


 

Live Flight TrackerFlight Track Log ✈ AAY894 ✈ 19-Jan-2014 ✈ KPIE - KIAG

Flight Track Log - Related Links

Times and Time Zones

All times are in EST time to prevent confusion due to time zone crossing. See the AAY894 flight status page for this flight to view local times or setup timezone preferences in your user account.

Time Position Orientation Groundspeed Altitude Reporting Facility
EST Latitude Longitude Course Direction KTS MPH feet Rate Location/Type
08:35AM 27.9000 -82.6833 170° South 159 183 900  Level Tampa TRACON
08:37AM 27.8167 -82.6667 170° South 214 246 3,300 1,680 Climbing Tampa TRACON
08:38AM 27.7833 -82.7333 241° Southwest 263 303 4,900 2,340 Climbing Tampa TRACON
08:39AM 27.8000 -82.8000 286° West 257 296 8,000 2,040 Climbing Tampa TRACON
08:41AM 27.9892 -82.7844 North 301 346 11,800 1,440 Climbing Jacksonville Center
08:42AM 28.0997 -82.7703 North 351 404 13,000 1,680 Climbing Jacksonville Center
08:43AM 28.2103 -82.7631 North 380 437 15,200 2,100 Climbing Jacksonville Center
08:44AM 28.3231 -82.7511 North 396 456 17,200 1,800 Climbing Jacksonville Center
08:45AM 28.4442 -82.7439 North 415 478 18,900 1,740 Climbing Jacksonville Center
08:46AM 28.5692 -82.7342 North 431 496 20,700 1,740 Climbing Jacksonville Center
08:47AM 28.7050 -82.7269 North 438 504 22,400 1,500 Climbing Jacksonville Center
08:48AM 28.8344 -82.7147 North 449 517 23,800 1,320 Climbing Jacksonville Center
08:49AM 28.9700 -82.7050 North 463 533 25,100 1,200 Climbing Jacksonville Center
08:50AM 29.1036 -82.6931 North 478 550 26,300 1,140 Climbing Jacksonville Center
08:51AM 29.2433 -82.6856 North 484 557 27,400 1,380 Climbing Jacksonville Center
08:52AM 29.3792 -82.6708 North 490 564 29,100 1,440 Climbing Jacksonville Center
08:53AM 29.5169 -82.6683 North 495 570 30,300 1,380 Climbing Jacksonville Center
08:54AM 29.6503 -82.6561 North 495 570 31,900 1,020 Climbing Jacksonville Center
08:55AM 29.7819 -82.6483 North 483 556 32,400 540 Climbing Jacksonville Center
08:56AM 29.9133 -82.6339 North 475 547 33,000 300 Climbing Jacksonville Center
08:57AM 30.0469 -82.6261 North 470 541 33,000  Level Jacksonville Center
08:58AM 30.1786 -82.6186 North 470 541 33,000 -60 Level Jacksonville Center
08:59AM 30.3081 -82.6014 North 470 541 32,900  Descending Jacksonville Center
09:00AM 30.4375 -82.5986 North 464 534 33,000  Climbing Jacksonville Center
09:01AM 30.5689 -82.5839 North 464 534 33,000  Level Jacksonville Center
09:02AM 30.6983 -82.5808 North 459 528 33,000  Level Jacksonville Center
09:03AM 30.8278 -82.5636 North 464 534 33,000  Level Jacksonville Center
09:04AM 30.9614 -82.5511 North 464 534 33,000  Level Jacksonville Center
09:05AM 31.0928 -82.5189 12° North 469 540 33,000 -60 Level Jacksonville Center
09:06AM 31.2222 -82.5039 North 469 540 32,900  Descending Jacksonville Center
09:07AM 31.3536 -82.4742 11° North 469 540 33,000  Climbing Jacksonville Center
09:08AM 31.4725 -82.4517 North 475 547 33,000  Level Jacksonville Center
09:11AM 31.8044 -82.3919 North 477 549 33,000  Level Atlanta Center
09:12AM 31.9333 -82.3625 11° North 469 540 33,000  Level Atlanta Center
09:13AM 32.0564 -82.3406 North 457 526 33,000  Level Atlanta Center
09:14AM 32.1811 -82.3111 11° North 457 526 33,000  Level Atlanta Center
09:15AM 32.2914 -82.2894 North 452 520 33,000  Level Atlanta Center
09:16AM 32.4142 -82.2672 North 447 514 33,000  Level Atlanta Center
09:17AM 32.5350 -82.2428 10° North 442 509 33,000  Level Atlanta Center
09:18AM 32.6578 -82.2231 North 442 509 33,000  Level Atlanta Center
09:19AM 32.7764 -82.1933 12° North 442 509 33,000  Level Atlanta Center
09:20AM 32.8972 -82.1758 North 442 509 33,000  Level Atlanta Center
09:21AM 33.0281 -82.1408 13° North 442 509 33,000  Level Atlanta Center
09:22AM 33.1489 -82.1233 North 442 509 33,000  Level Atlanta Center
09:23AM 33.2675 -82.0933 12° North 442 509 33,000  Level Atlanta Center
09:24AM 33.3861 -82.0733 North 437 503 33,000  Level Atlanta Center
09:25AM 33.5047 -82.0458 11° North 437 503 33,000  Level Atlanta Center
09:26AM 33.6233 -82.0256 North 426 490 33,000  Level Atlanta Center
09:27AM 33.7397 -81.9978 11° North 426 490 33,000  Level Atlanta Center
09:28AM 33.8564 -81.9775 North 426 490 33,000  Level Atlanta Center
09:29AM 33.9728 -81.9522 10° North 426 490 33,000  Level Atlanta Center
09:30AM 34.0767 -81.9297 10° North 426 490 33,000  Level Atlanta Center
09:31AM 34.1911 -81.9117 North 421 484 33,000  Level Atlanta Center
09:32AM 34.3033 -81.8811 13° North 421 484 33,000  Level Atlanta Center
09:33AM 34.4136 -81.8683 North 409 471 33,000  Level Atlanta Center
09:34AM 34.5217 -81.8403 12° North 396 456 33,000  Level Atlanta Center
09:35AM 34.6297 -81.8172 10° North 396 456 33,000  Level Atlanta Center
09:36AM 34.7381 -81.7967 North 396 456 33,000  Level Atlanta Center
09:37AM 34.8439 -81.7736 10° North 390 449 33,000  Level Atlanta Center
09:38AM 34.9522 -81.7531 North 390 449 33,000  Level Atlanta Center
09:39AM 35.0558 -81.7272 12° North 390 449 33,100  Climbing Atlanta Center
09:40AM 35.1558 -81.7144 North 380 437 33,000 -60 Descending Atlanta Center
09:41AM 35.2575 -81.6861 13° North 370 426 33,000  Level Atlanta Center
09:42AM 35.3617 -81.6703 North 370 426 33,000 -480 Level Atlanta Center
09:43AM 35.4633 -81.6419 13° North 370 426 32,100 -960 Descending Atlanta Center
09:44AM 35.5589 -81.6264 North 365 420 31,100 -600 Descending Atlanta Center
09:45AM 35.6564 -81.5981 13° North 360 414 31,000 -60 Descending Atlanta Center
09:46AM 35.7542 -81.5822 North 355 409 31,000  Level Atlanta Center
09:47AM 35.8517 -81.5561 12° North 355 409 31,000  Level Atlanta Center
09:48AM 35.9494 -81.5378 North 355 409 31,000  Level Atlanta Center
09:49AM 36.1247 -81.4956 11° North 359 413 31,000  Level Indianapolis Center
09:50AM 36.2228 -81.4722 11° North 359 413 31,000  Level Indianapolis Center
09:51AM 36.3219 -81.4525 North 360 414 31,000  Level Indianapolis Center
09:52AM 36.4211 -81.4303 10° North 363 418 31,000  Level Indianapolis Center
09:53AM 36.5303 -81.4067 10° North 366 421 31,000  Level Indianapolis Center
09:54AM 36.6275 -81.3850 10° North 366 421 31,000  Level Indianapolis Center
09:55AM 36.7247 -81.3589 12° North 365 420 31,000  Level Indianapolis Center
09:56AM 36.8408 -81.3378 North 362 417 31,000  Level Indianapolis Center
09:58AM 36.9408 -81.3133 11° North 366 421 31,000  Level Indianapolis Center
09:59AM 37.0381 -81.2961 North 363 418 31,000  Level Indianapolis Center
10:00AM 37.1372 -81.2675 13° North 362 417 31,000  Level Indianapolis Center
10:01AM 37.2386 -81.2531 North 364 419 31,000  Level Indianapolis Center
10:02AM 37.3528 -81.2189 13° North 368 423 31,000  Level Indianapolis Center
10:03AM 37.4508 -81.2033 North 364 419 31,000  Level Indianapolis Center
10:04AM 37.5475 -81.1756 13° North 365 420 31,000  Level Indianapolis Center
10:05AM 37.6467 -81.1594 North 366 421 31,000  Level Indianapolis Center
10:06AM 37.7647 -81.1250 13° North 370 426 31,000  Level Indianapolis Center
10:07AM 37.8486 -81.1078 North 369 425 31,000  Level Indianapolis Center
10:08AM 37.9667 -81.0661 16° North 366 421 31,000  Level Indianapolis Center
10:09AM 38.0669 -81.0461 North 364 419 31,000  Level Indianapolis Center
10:10AM 38.1661 -81.0097 16° North 369 425 31,000  Level Indianapolis Center
10:11AM 38.2656 -80.9881 10° North 366 421 31,000  Level Indianapolis Center
10:12AM 38.3647 -80.9519 16° North 369 425 31,000  Level Indianapolis Center
10:13AM 38.4644 -80.9272 11° North 368 423 31,000  Level Indianapolis Center
10:14AM 38.5639 -80.8967 14° North 369 425 31,000  Level Indianapolis Center
10:15AM 38.6636 -80.8669 13° North 369 425 31,000  Level Indianapolis Center
10:16AM 38.7833 -80.8322 13° North 369 425 31,000  Level Indianapolis Center
10:17AM 38.8839 -80.8019 13° North 371 427 31,000  Level Indianapolis Center
10:18AM 38.9850 -80.7744 12° North 372 428 31,000  Level Indianapolis Center
10:19AM 39.0836 -80.7394 15° North 371 427 31,000  Level Indianapolis Center
10:20AM 39.1853 -80.7158 10° North 370 426 31,000  Level Indianapolis Center
10:21AM 39.2847 -80.6767 17° North 374 430 31,000  Level Indianapolis Center
10:22AM 39.3858 -80.6553 North 370 426 31,000  Level Indianapolis Center
10:23AM 39.4856 -80.6158 17° North 374 430 31,000  Level Indianapolis Center
10:24AM 39.5872 -80.5944 North 370 426 31,000  Level Indianapolis Center
10:25AM 39.6947 -80.5594 14° North 375 432 31,000  Level Cleveland Center
10:26AM 39.7961 -80.5325 12° North 373 429 31,000  Level Cleveland Center
10:27AM 39.8958 -80.4972 15° North 372 428 31,000  Level Cleveland Center
10:28AM 39.9986 -80.4694 12° North 375 432 31,000  Level Cleveland Center
10:29AM 40.0997 -80.4375 14° North 373 429 31,000  Level Cleveland Center
10:30AM 40.2186 -80.3781 21° North 380 437 31,000  Level Cleveland Center
10:31AM 40.3206 -80.3400 16° North 377 434 31,000  Level Cleveland Center
10:32AM 40.4144 -80.2892 22° Northeast 383 441 31,000  Level Cleveland Center
10:33AM 40.5156 -80.2494 17° North 378 435 31,000  Level Cleveland Center
10:34AM 40.6139 -80.1967 22° Northeast 382 440 31,000  Level Cleveland Center
10:35AM 40.7144 -80.1547 18° North 380 437 31,000  Level Cleveland Center
10:36AM 40.8350 -80.0942 21° North 387 445 31,000 -240 Level Cleveland Center
10:37AM 40.9264 -80.0519 19° North 384 442 30,600 -720 Descending Cleveland Center
10:38AM 41.0272 -80.0028 20° North 386 444 29,600 -1,080 Descending Cleveland Center
10:39AM 41.1356 -79.9492 20° North 384 442 28,500 -1,020 Descending Cleveland Center
10:41AM 41.2374 -79.8648 19° North  Level FlightAware Approximate
10:41AM 41.3353 -79.8469 19° North 384 442 26,500  Level Cleveland Center
10:42AM 41.4319 -79.8075 17° North 369 425 25,600 -1,020 Descending Cleveland Center
10:44AM 41.5253 -79.7500 25° Northeast 369 425 24,500 -840 Descending Cleveland Center
10:45AM 41.6217 -79.7117 17° North 362 417 24,000 -420 Descending Cleveland Center
10:46AM 41.7353 -79.6469 23° Northeast 368 423 23,700 -900 Descending Cleveland Center
10:47AM 41.8289 -79.6078 17° North 355 409 22,200 -1,500 Descending Cleveland Center
10:48AM 41.9236 -79.5536 23° Northeast 368 423 20,700 -1,440 Descending Cleveland Center
10:49AM 42.0214 -79.5067 20° North 374 430 19,300 -1,200 Descending Cleveland Center
10:50AM 42.1150 -79.4561 22° Northeast 364 419 18,300 -1,320 Descending Cleveland Center
10:51AM 42.2083 -79.4086 21° North 359 413 16,700 -1,500 Descending Cleveland Center
10:52AM 42.3025 -79.3675 18° North 358 412 15,300 -1,380 Descending Cleveland Center
10:53AM 42.3978 -79.3314 16° North 354 407 13,900 -1,500 Descending Cleveland Center
10:54AM 42.4969 -79.2892 17° North 354 407 12,300 -1,440 Descending Cleveland Center
10:55AM 42.5900 -79.2519 16° North 350 403 11,000 -780 Descending Cleveland Center
10:56AM 42.6753 -79.2181 16° North 320 368 10,800 -960 Descending Cleveland Center
10:57AM 42.7489 -79.1231 43° Northeast 310 357 9,100 -1,680 Descending Cleveland Center
10:58AM 42.8203 -79.0553 35° Northeast 300 345 7,400 -1,500 Descending Cleveland Center
10:59AM 42.8847 -78.9886 37° Northeast 301 346 6,100 -1,320 Descending Cleveland Center
11:00AM 42.9519 -78.9144 39° Northeast 305 351 4,800 -1,020 Descending Cleveland Center
11:01AM 43.0000 -78.8000 60° Northeast 296 341 4,000 -900 Descending Buffalo TRACON
11:02AM 43.0500 -78.7000 56° Northeast 278 320 3,000 -900 Descending Buffalo TRACON
11:03AM 43.1000 -78.7167 346° North 208 239 2,300 -420 Descending Buffalo TRACON
11:04AM 43.1167 -78.7667 295° West 143 165 2,300 -180 Level Buffalo TRACON
11:05AM 43.1167 -78.8167 270° West 114 131 2,000 -360 Descending Buffalo TRACON
11:06AM 43.1167 -78.8667 270° West 106 122 1,600 -540 Descending Buffalo TRACON
11:07AM 43.1167 -78.9000 270° West 117 135 1,000 -600 Descending Buffalo TRACON